createdAt,value
2018-11-20T00:05:09.266Z,101437.78
2018-11-20T00:10:30.771Z,101431.71
2018-11-20T00:15:55.588Z,101433.91
2018-11-20T00:21:31.021Z,101441.23
2018-11-20T00:27:09.168Z,101426.53
2018-11-20T00:32:30.941Z,101426.52
2018-11-20T00:37:46.326Z,101417.89
2018-11-20T00:43:18.460Z,101407.08
2018-11-20T00:48:53.449Z,101401.88
2018-11-20T00:54:05.612Z,101393.23
2018-11-20T00:59:28.847Z,101388.48
2018-11-20T01:05:01.576Z,101384.16
2018-11-20T01:10:28.429Z,101394.10
2018-11-20T01:15:46.676Z,101371.60
2018-11-20T01:21:19.006Z,101364.67
2018-11-20T01:26:32.725Z,101363.39
2018-11-20T01:31:54.429Z,101349.45
2018-11-20T01:37:16.289Z,101336.56
2018-11-20T01:42:35.296Z,101328.36
2018-11-20T01:48:13.722Z,101326.56
2018-11-20T01:53:42.572Z,101301.07
2018-11-20T01:59:02.730Z,101304.58
2018-11-20T02:04:24.802Z,101290.73
2018-11-20T02:10:18.809Z,101278.16
2018-11-20T02:15:49.866Z,101276.44
2018-11-20T02:21:03.432Z,101268.23
2018-11-20T02:26:16.354Z,101254.42
2018-11-20T02:31:26.364Z,101255.29
2018-11-20T02:36:54.576Z,101249.25
2018-11-20T02:42:15.261Z,101242.76
2018-11-20T02:47:40.132Z,101231.11
2018-11-20T02:53:02.225Z,101223.33
2018-11-20T02:58:28.056Z,101199.57
2018-11-20T03:03:48.819Z,101198.72
2018-11-20T03:08:59.452Z,101190.48
2018-11-20T03:14:20.098Z,101180.52
2018-11-20T03:19:50.989Z,101182.72
2018-11-20T03:25:17.089Z,101171.05
2018-11-20T03:31:18.102Z,101174.08
2018-11-20T03:36:42.391Z,101174.95
2018-11-20T03:42:04.499Z,101166.30
2018-11-20T03:47:25.046Z,101161.57
2018-11-20T03:52:37.539Z,101163.31
2018-11-20T03:57:59.618Z,101164.16
2018-11-20T04:03:19.896Z,101155.09
2018-11-20T04:08:56.927Z,101145.13
2018-11-20T04:14:26.225Z,101139.89
2018-11-20T04:19:36.386Z,101137.30
2018-11-20T04:24:57.313Z,101148.98
2018-11-20T04:31:13.865Z,101166.23
2018-11-20T04:36:38.660Z,101149.85
2018-11-20T04:41:58.068Z,101151.59
2018-11-20T04:47:11.917Z,101164.12
2018-11-20T04:52:42.784Z,101151.94
2018-11-20T04:57:58.352Z,101164.83
2018-11-20T05:03:35.720Z,101166.26
2018-11-20T05:08:45.626Z,101167.55
2018-11-20T05:14:06.249Z,101155.87
2018-11-20T05:19:34.010Z,101140.77
2018-11-20T05:24:58.909Z,101130.83
2018-11-20T05:30:21.017Z,101138.20
2018-11-20T05:35:33.929Z,101133.86
2018-11-20T05:40:43.689Z,101160.22
2018-11-20T05:46:04.358Z,101161.11
2018-11-20T05:51:18.795Z,101152.42
2018-11-20T05:56:43.533Z,101151.55
2018-11-20T06:01:53.451Z,101164.98
2018-11-20T06:07:04.140Z,101170.98
2018-11-20T06:12:32.010Z,101175.77
2018-11-20T06:17:52.898Z,101152.44
2018-11-20T06:23:14.982Z,101154.20
2018-11-20T06:28:26.759Z,101161.63
2018-11-20T06:33:50.392Z,101139.17
2018-11-20T06:39:05.581Z,101128.37
2018-11-20T06:44:26.268Z,101122.30
2018-11-20T06:49:41.283Z,101116.66
2018-11-20T06:55:03.361Z,101133.94
2018-11-20T07:00:43.613Z,101134.83
2018-11-20T07:06:04.171Z,101136.90
2018-11-20T07:11:28.825Z,101144.33
2018-11-20T07:16:52.178Z,101136.98
2018-11-20T07:22:02.107Z,101146.55
2018-11-20T07:27:24.378Z,101146.55
2018-11-20T07:32:40.553Z,101143.06
2018-11-20T07:38:20.831Z,101139.16
2018-11-20T07:43:29.979Z,101139.13
2018-11-20T07:48:42.083Z,101139.15
2018-11-20T07:54:19.110Z,101133.13
2018-11-20T07:59:40.038Z,101110.23
2018-11-20T08:05:05.029Z,101126.21
2018-11-20T08:10:25.564Z,101124.06
2018-11-20T08:15:56.597Z,101121.50
2018-11-20T08:21:05.248Z,101086.89
2018-11-20T08:26:26.023Z,101088.29
2018-11-20T08:32:06.155Z,101093.45
2018-11-20T08:37:18.092Z,101073.50
2018-11-20T08:42:38.510Z,101075.23
2018-11-20T08:47:51.936Z,101099.77
2018-11-20T08:53:23.484Z,101096.00
2018-11-20T08:58:51.392Z,101084.75
2018-11-20T09:04:16.084Z,101100.68
2018-11-20T09:09:39.820Z,101091.55
2018-11-20T09:15:00.622Z,101099.02
2018-11-20T09:20:28.672Z,101085.63
2018-11-20T09:25:53.527Z,101087.81
2018-11-20T09:31:14.093Z,101069.63
2018-11-20T09:36:25.222Z,101067.80
2018-11-20T09:41:35.380Z,101056.67
2018-11-20T09:46:54.903Z,101058.77
2018-11-20T09:52:16.275Z,101049.23
2018-11-20T09:57:53.314Z,101057.81
2018-11-20T10:03:18.313Z,101041.42
2018-11-20T10:08:46.420Z,101040.14
2018-11-20T10:14:07.346Z,101034.09
2018-11-20T10:19:21.100Z,101047.56
2018-11-20T10:24:49.329Z,101039.63
2018-11-20T10:30:20.431Z,101034.05
2018-11-20T10:35:48.507Z,101047.39
2018-11-20T10:41:09.346Z,101024.56
2018-11-20T10:46:22.248Z,101011.55
2018-11-20T10:51:50.055Z,101008.53
2018-11-20T10:57:10.876Z,101003.09
2018-11-20T11:02:31.678Z,100997.70
2018-11-20T11:07:53.151Z,101015.95
2018-11-20T11:13:13.624Z,100986.55
2018-11-20T11:18:53.994Z,100989.74
2018-11-20T11:24:14.532Z,100968.71
2018-11-20T11:29:35.165Z,100963.32
2018-11-20T11:34:57.252Z,100968.38
2018-11-20T11:40:13.476Z,100956.51
2018-11-20T11:45:24.957Z,100960.56
2018-11-20T11:50:39.954Z,100945.36
2018-11-20T11:56:00.819Z,100940.77
2018-11-20T12:06:54.224Z,100932.24
2018-11-20T12:12:15.315Z,100937.30
2018-11-20T12:17:34.608Z,100924.27
2018-11-20T12:22:55.655Z,100925.25
2018-11-20T12:28:30.067Z,100914.02
2018-11-20T12:33:41.997Z,100920.50
2018-11-20T12:39:02.713Z,100914.92
2018-11-20T12:44:26.770Z,100903.02
2018-11-20T12:49:54.801Z,100901.76
2018-11-20T12:55:33.961Z,100898.42
2018-11-20T13:00:53.703Z,100887.27
2018-11-20T13:06:34.068Z,100878.56
2018-11-20T13:12:11.384Z,100867.45
2018-11-20T13:17:29.493Z,100878.04
2018-11-20T13:22:55.640Z,100881.14
2018-11-20T13:28:15.507Z,100862.53
2018-11-20T13:33:27.025Z,100860.23
2018-11-20T13:38:56.751Z,100870.39
2018-11-20T13:44:18.831Z,100881.13
2018-11-20T13:49:43.684Z,100865.10
2018-11-20T13:55:04.254Z,100869.84
2018-11-20T14:00:38.234Z,100883.98
2018-11-20T14:05:59.011Z,100872.38
2018-11-20T14:11:19.740Z,100870.19
2018-11-20T14:16:41.850Z,100863.64
2018-11-20T14:22:03.267Z,100859.18
2018-11-20T14:27:40.340Z,100852.10
2018-11-20T14:32:58.550Z,100844.28
2018-11-20T14:38:21.600Z,100847.40
2018-11-20T14:43:37.638Z,100840.68
2018-11-20T14:48:59.828Z,100841.98
2018-11-20T14:54:21.012Z,100844.64
2018-11-20T14:59:56.356Z,100847.19
2018-11-20T15:05:11.044Z,100855.98
2018-11-20T15:10:20.827Z,100856.00
2018-11-20T15:15:37.885Z,100859.84
2018-11-20T15:20:58.711Z,100880.17
2018-11-20T15:26:14.257Z,100877.25
2018-11-20T15:31:38.895Z,100867.91
2018-11-20T15:36:59.445Z,100879.12
2018-11-20T15:42:31.006Z,100878.79
2018-11-20T15:47:48.423Z,100887.39
2018-11-20T15:53:08.913Z,100897.73
2018-11-20T15:58:29.447Z,100884.82
2018-11-20T16:03:58.180Z,100902.05
2018-11-20T16:09:18.808Z,100905.52
2018-11-20T16:14:40.915Z,100900.78
2018-11-20T16:20:04.104Z,100917.16
2018-11-20T16:25:24.905Z,100899.94
2018-11-20T16:30:59.115Z,100886.14
2018-11-20T16:36:21.228Z,100885.74
2018-11-20T16:41:46.019Z,100886.17
2018-11-20T16:47:06.640Z,100888.75
2018-11-20T16:52:37.539Z,100896.48
2018-11-20T16:57:58.169Z,100889.13
2018-11-20T17:03:18.873Z,100897.33
2018-11-20T17:08:45.796Z,100893.90
2018-11-20T17:14:23.045Z,100906.38
2018-11-20T17:19:32.659Z,100905.90
2018-11-20T17:24:53.398Z,100898.98
2018-11-20T17:30:15.487Z,100886.52
2018-11-20T17:35:52.765Z,100897.73
2018-11-20T17:41:09.557Z,100892.52
2018-11-20T17:46:31.699Z,100898.63
2018-11-20T17:51:56.435Z,100921.86
2018-11-20T17:57:21.328Z,100928.31
2018-11-20T18:02:42.092Z,100933.06
2018-11-20T18:08:13.075Z,100927.47
2018-11-20T18:13:30.658Z,100919.70
2018-11-20T18:18:51.595Z,100930.09
2018-11-20T18:24:13.666Z,100906.34
2018-11-20T18:29:25.233Z,100912.39
2018-11-20T18:34:45.499Z,100926.61
2018-11-20T18:40:05.863Z,100933.94
2018-11-20T18:45:20.285Z,100924.48
2018-11-20T18:50:45.358Z,100934.41
2018-11-20T18:56:01.973Z,100940.81
2018-11-20T19:01:23.152Z,100945.14
2018-11-20T19:06:43.750Z,100949.44
2018-11-20T19:12:09.690Z,100940.84
2018-11-20T19:17:30.746Z,100930.50
2018-11-20T19:22:55.378Z,100928.37
2018-11-20T19:28:16.035Z,100928.77
2018-11-20T19:33:47.588Z,100928.76
2018-11-20T19:39:27.696Z,100920.99
2018-11-20T19:44:50.937Z,100930.47
2018-11-20T19:50:11.834Z,100944.25
2018-11-20T19:55:48.937Z,100942.07
2018-11-20T20:01:09.990Z,100942.55
2018-11-20T20:06:32.072Z,100943.84
2018-11-20T20:11:42.590Z,100938.66
2018-11-20T20:17:00.902Z,100935.17
2018-11-20T20:22:21.813Z,100961.12
2018-11-20T20:27:42.697Z,100958.49
2018-11-20T20:33:04.031Z,100962.79
2018-11-20T20:38:41.049Z,100976.58
2018-11-20T20:44:01.625Z,100986.48
2018-11-20T20:49:22.401Z,100995.58
2018-11-20T20:54:43.055Z,101002.91
2018-11-20T21:00:18.676Z,100996.39
2018-11-20T21:05:39.494Z,100998.17
2018-11-20T21:11:01.578Z,101016.28
2018-11-20T21:16:31.466Z,101016.30
2018-11-20T21:21:46.487Z,101013.70
2018-11-20T21:27:23.516Z,101020.17
2018-11-20T21:32:54.591Z,101029.64
2018-11-20T21:38:34.748Z,101017.59
2018-11-20T21:44:09.039Z,101025.81
2018-11-20T21:49:28.324Z,101016.30
2018-11-20T21:54:44.415Z,101025.34
2018-11-20T22:00:27.268Z,101015.41
2018-11-20T22:05:43.487Z,101019.75
2018-11-20T22:11:23.736Z,101017.19
2018-11-20T22:16:51.245Z,101030.13
2018-11-20T22:22:11.678Z,101037.88
2018-11-20T22:27:32.386Z,101041.78
2018-11-20T22:33:09.379Z,101028.41
2018-11-20T22:38:34.527Z,101027.09
2018-11-20T22:43:54.954Z,101022.80
2018-11-20T22:49:15.554Z,101038.30
2018-11-20T22:54:43.404Z,101061.16
2018-11-20T23:00:05.494Z,101068.49
2018-11-20T23:05:32.145Z,101082.71
2018-11-20T23:10:34.616Z,101084.44
2018-11-20T23:15:37.106Z,101084.41
2018-11-20T23:20:39.592Z,101092.18
2018-11-20T23:25:42.082Z,101080.53
2018-11-20T23:30:44.567Z,101083.95
2018-11-20T23:35:47.041Z,101083.59
2018-11-20T23:40:49.517Z,101079.69
2018-11-20T23:45:51.995Z,101099.55
2018-11-20T23:50:54.511Z,101101.28
2018-11-20T23:55:56.996Z,101108.59
